Flight Track Log - Related Links

Times and Time Zones

All times are in EDT time to prevent confusion due to time zone crossing. See the SWA276 flight status page for this flight to view local times or setup timezone preferences in your user account.

Time Position Orientation Groundspeed Altitude Reporting Facility
EDT Latitude Longitude Course Direction KTS MPH feet Rate Location/Type
Wed 03:30:56 PM 37.7267 -122.2517 150° Southeast 169 194 1,700  Level Oakland Center
Wed 03:31:58 PM 37.7433 -122.3222 287° West 218 251 4,600 2,927 Climbing Oakland Center
Wed 03:32:59 PM 37.7011 -122.3775 226° Southwest 248 285 7,700 2,656 Climbing Oakland Center
Wed 03:34:00 PM 37.6281 -122.4211 205° Southwest 287 330 10,000 1,805 Climbing Oakland Center
Wed 03:35:02 PM 37.5375 -122.4361 187° South 326 375 11,400 2,439 Climbing Oakland Center
Wed 03:36:00 PM 37.2858 -122.3303 150° Southeast  Level FlightAware Approximate
Wed 03:36:03 PM 37.4503 -122.4000 162° South 349 402 15,000  Level Oakland Center
Wed 03:37:04 PM 37.4211 -122.2789 107° East 368 423 18,400 2,927 Climbing Oakland Center
Wed 03:38:06 PM 37.3939 -122.1497 105° East 381 438 21,000 2,683 Climbing Oakland Center
Wed 03:39:07 PM 37.3664 -122.0125 104° East 402 463 23,900 2,780 Climbing Oakland Center
Wed 03:40:09 PM 37.3303 -121.8419 105° East 420 483 26,700 2,390 Climbing Oakland Center
Wed 03:41:10 PM 37.3014 -121.7017 104° East 435 501 28,800 2,311 Climbing Oakland Center
Wed 03:42:11 PM 37.2700 -121.5542 105° East 439 505 31,400 2,049 Climbing Oakland Center
Wed 03:43:13 PM 37.2383 -121.4083 105° East 436 502 33,000 780 Climbing Oakland Center
Wed 03:44:14 PM 37.2064 -121.2583 105° East 444 511 33,000  Level Oakland Center
Wed 03:45:16 PM 37.1739 -121.1061 105° East 452 520 33,000  Level Oakland Center
Wed 03:46:17 PM 37.1347 -120.9247 105° East 452 520 33,000  Level Oakland Center
Wed 03:47:19 PM 37.0997 -120.7758 106° East 453 521 33,000  Level Oakland Center
Wed 03:48:20 PM 37.0672 -120.6258 105° East 462 532 33,000  Level Oakland Center
Wed 03:49:21 PM 37.0581 -120.4722 94° East 453 521 33,000  Level Oakland Center
Wed 03:50:23 PM 37.0786 -120.3169 81° East 453 521 33,000  Level Oakland Center
Wed 03:51:24 PM 37.0978 -120.1600 81° East 458 527 33,000  Level Oakland Center
Wed 03:52:26 PM 37.1189 -120.0011 80° East 462 532 33,000  Level Oakland Center
Wed 03:53:28 PM 37.1422 -119.8117 81° East 465 535 33,000  Level Oakland Center
Wed 03:54:29 PM 37.1628 -119.6514 81° East 467 537 33,000  Level Oakland Center
Wed 03:55:31 PM 37.1833 -119.4900 81° East 468 539 33,000  Level Oakland Center
Wed 03:56:32 PM 37.2028 -119.3283 81° East 470 541 33,000  Level Oakland Center
Wed 03:57:34 PM 37.2219 -119.1667 81° East 468 539 33,000  Level Oakland Center
Wed 03:58:35 PM 37.2417 -119.0031 81° East 473 544 33,000  Level Oakland Center
Wed 03:59:37 PM 37.2611 -118.8411 81° East 472 543 33,000  Level Oakland Center
Wed 04:00:38 PM 37.2761 -118.6747 83° East 478 550 33,000  Level Oakland Center
Wed 04:01:40 PM 37.2939 -118.5097 82° East 480 552 33,000  Level Oakland Center
Wed 04:02:41 PM 37.3183 -118.3300 80° East 472 543 33,000  Level Oakland Center
Wed 04:03:43 PM 37.3364 -118.1661 82° East 474 545 33,000  Level Oakland Center
Wed 04:04:44 PM 37.3544 -117.9997 82° East 481 554 33,000  Level Oakland Center
Wed 04:06:00 PM 37.3686 -117.8379 84° East  Level FlightAware Approximate
Wed 04:06:47 PM 37.3931 -117.6369 84° East 477 549 33,000  Level Oakland Center
Wed 04:07:49 PM 37.4108 -117.4711 82° East 480 552 33,000  Level Oakland Center
Wed 04:08:50 PM 37.4153 -117.3058 88° East 484 557 33,000  Level Oakland Center
Wed 04:09:52 PM 37.3272 -117.1897 134° Southeast 470 541 33,000  Level Oakland Center
Wed 04:10:53 PM 37.2208 -117.1022 147° Southeast 461 531 33,000  Level Oakland Center
Wed 04:11:54 PM 37.1136 -117.0111 146° Southeast 462 532 33,000  Level Oakland Center
Wed 04:12:56 PM 37.0097 -116.9244 146° Southeast 453 521 33,000  Level Oakland Center
Wed 04:13:57 PM 36.9039 -116.8342 146° Southeast 456 525 33,000  Level Oakland Center
Wed 04:14:59 PM 36.7828 -116.7217 143° Southeast 456 525 33,000 -1,268 Level Oakland Center
Wed 04:16:00 PM 36.6983 -116.6028 132° Southeast 459 528 30,400 -2,447 Descending Oakland Center
Wed 04:16:15 PM 36.6828 -116.5753 125° Southeast 457 526 29,900 -2,338 Descending Los Angeles Center
Wed 04:17:17 PM 36.6000 -116.4608 132° Southeast 449 517 27,400 -2,516 Descending Los Angeles Center
Wed 04:18:19 PM 36.5147 -116.3389 131° Southeast 434 499 24,700 -2,112 Descending Los Angeles Center
Wed 04:19:22 PM 36.4386 -116.2311 131° Southeast 418 481 23,000 -816 Descending Los Angeles Center
Wed 04:20:24 PM 36.3592 -116.1222 132° Southeast 390 449 23,000  Level Los Angeles Center
Wed 04:21:04 PM 36.3103 -116.0556 132° Southeast 380 437 23,000 -387 Level Los Angeles Center
Wed 04:21:26 PM 36.2872 -116.0172 127° Southeast 378 435 22,600 -2,727 Descending Los Angeles Center
Wed 04:21:59 PM 36.2467 -115.9669 135° Southeast 377 434 20,500 -4,452 Descending Los Angeles Center
Wed 04:22:28 PM 36.2147 -115.9169 128° Southeast 396 456 18,000 -3,940 Descending Los Angeles Center
Wed 04:23:06 PM 36.1794 -115.8422 120° Southeast 407 468 16,100 -2,032 Descending Los Angeles Center
Wed 04:23:30 PM 36.1642 -115.7903 110° East 409 471 15,900 -218 Descending Los Angeles Center
Wed 04:24:01 PM 36.1436 -115.7339 114° Southeast 367 422 15,900 97 Level Los Angeles Center
Wed 04:24:32 PM 36.1297 -115.6794 108° East 318 366 16,000 -228 Climbing Los Angeles Center
Wed 04:25:20 PM 36.1064 -115.6103 113° Southeast 296 341 15,600 -467 Descending Los Angeles Center
Wed 04:26:02 PM 36.0831 -115.5408 113° Southeast 286 329 15,300 -474 Descending Los Angeles Center
Wed 04:26:36 PM 36.0686 -115.4897 109° East 281 323 15,000 -716 Descending Los Angeles Center
Wed 04:27:09 PM 36.0517 -115.4447 115° Southeast 281 323 14,500 -1,048 Descending Los Angeles Center
Wed 04:27:39 PM 36.0394 -115.4017 109° East 279 321 13,900 -1,279 Descending Los Angeles Center
Wed 04:28:10 PM 36.0258 -115.3550 110° East 288 331 13,200 -1,065 Descending Los Angeles Center
Wed 04:28:41 PM 36.0261 -115.3108 90° East 276 318 12,800 -689 Descending Los Angeles Center
Wed 04:29:11 PM 36.0222 -115.2578 95° East 261 300 12,500 -484 Descending Los Angeles Center
Wed 04:29:43 PM 36.0208 -115.2256 93° East 263 303 12,300 -787 Descending Los Angeles Center
Wed 04:30:12 PM 36.0172 -115.1850 96° East 224 258 11,700 -968 Descending Los Angeles Center
Wed 04:30:45 PM 36.0164 -115.1533 92° East 239 275 11,300 -1,180 Descending Los Angeles Center
Wed 04:31:13 PM 36.0011 -115.1211 120° Southeast 203 234 10,500 -1,355 Descending Los Angeles Center
Wed 04:31:47 PM 35.9814 -115.1225 183° South 218 251 9,900 -1,475 Descending Los Angeles Center
Wed 04:32:14 PM 35.9492 -115.1408 205° Southwest 193 222 9,000 -1,216 Descending Los Angeles Center
Wed 04:33:01 PM 35.9203 -115.1564 204° Southwest 204 235 8,400 -1,091 Descending Los Angeles Center
Wed 04:34:04 PM 35.9197 -115.2158 269° West 203 234 7,000 -1,200 Descending Los Angeles Center
Wed 04:35:06 PM 35.9625 -115.2386 337° Northwest 182 209 5,900 -1,016 Descending Los Angeles Center
Wed 04:36:08 PM 35.9997 -115.2089 33° Northeast 170 196 4,900 -1,398 Descending Los Angeles Center
Wed 04:37:19 PM 36.0514 -115.1842 21° North 156 180 2,800 -1,270 Descending Los Angeles Center
Wed 04:38:25 PM 36.0914 -115.1608 25° Northeast 136 157 2,000 -727 Descending Los Angeles Center
Wed 04:40:00 PM 36.0801 -115.1523 219° Southwest  Level Estimated

Login

Don't have an account? Register now (free) for customized features, flight alerts, and more!